x

Folly Island, Sc (fbis1) Weather Station

1:00am - Tue 21st Apr 2015 All times are EDT. -4 hours from GMT.

  • Wind
    13mph, 16mph gusts
  • Air Temp 69°f
  • Sea Pressure 1010.7mb
  • Folly Island, Sc
  • Folly Island, Sc

More Historic Weather Station data

Upgrade to MSW Pro to gain access to the past 30 days of data for over 8000 Wavebouys and Weather Stations around the globe.

Join Pro

Comparision Forecast

View Surf forecast
   
Tue 04/21 1:00am 13 16 mph 1010.7mb 69f
12:00am 15 20 mph 1010.3mb 69f
Mon 04/20 11:00pm 13 17 mph 1009.9mb 69f
10:00pm 15 17 mph 1009.5mb 70f
9:00pm 11 15 mph 1008.8mb 70f
8:00pm 9 11 mph 1008.4mb 69f
7:00pm 11 13 mph 1007.7mb 69f
6:00pm 11 14 mph 1007.4mb 69f
5:00pm 10 14 mph 1008.5mb 69f
4:00pm 15 18 mph 1008.8mb 69f
3:00pm 16 20 mph 1009.6mb 69f
2:00pm 17 20 mph 1010.4mb 68f
1:00pm 18 21 mph 1011.2mb 69f
12:00pm 15 17 mph 1011.2mb 70f
11:00am 11 16 mph 1011.2mb 69f
10:00am 14 16 mph 1010.4mb 68f
9:00am 13 15 mph 1010.5mb 68f
8:00am 7 10 mph 1010.4mb 68f
7:00am 5 6 mph 1010.2mb 67f
6:00am 7 10 mph 1010mb 67f
5:00am 9 13 mph 1009.9mb 67f
4:00am 11 17 mph 1009.9mb 68f
3:00am 11 15 mph 1010.1mb 68f
2:00am 15 16 mph 1010.2mb 69f
1:00am 13 15 mph 1010.5mb 69f
12:00am 10 13 mph 1010.6mb 68f
Sun 04/19 11:00pm 11 14 mph 1010.1mb 69f
10:00pm 13 14 mph 1009.6mb 69f
9:00pm 8 9 mph 1009.9mb 68f
8:00pm 3
mph
1009.2mb 67f
7:00pm 8 11 mph 1009.9mb 66f
6:00pm 8 9 mph 1010mb 70f
5:00pm 10 11 mph 1011.2mb 70f
4:00pm 8
mph
1011.4mb 70f
3:00pm 6 7 mph 1012.2mb 70f
2:00pm 7
mph
1013.3mb 69f
1:00pm 7 9 mph 1013.2mb 69f
12:00pm 8 9 mph 1012.9mb 69f
11:00am 10 11 mph 1013.4mb 69f
10:00am 7 8 mph 1014mb 69f
9:00am 7 8 mph 1014.3mb 68f
8:00am 9 10 mph 1014.4mb 67f
7:00am 10 13 mph 1014.1mb 67f
6:00am 9 10 mph 1013.5mb 67f
5:00am 6 7 mph 1013.4mb 68f
4:00am 7 8 mph 1013.7mb 68f
3:00am 5 6 mph 1013.8mb 68f
2:00am 3 5 mph 1014.5mb 67f
1:00am 5
mph
1014.9mb 68f
12:00am 1 2 mph 1015.2mb 67f
Sat 04/18 11:00pm 3
mph
1015.5mb 67f
10:00pm 5
mph
1015.5mb 67f
9:00pm 8 9 mph 1014.6mb 67f
8:00pm 9
mph
1013.9mb 67f
7:00pm 6 7 mph 1013.9mb 68f
6:00pm 7
mph
1014mb 68f
5:00pm 8
mph
1013.8mb 69f
4:00pm 9 10 mph 1014.2mb 69f
3:00pm 9 10 mph 1015mb 69f
2:00pm 6 7 mph 1015.6mb 69f
1:00pm 6
mph
1015.7mb 68f
12:00pm 3 5 mph 1015.8mb 68f
11:00am 1 2 mph 1016mb 69f
10:00am 2 3 mph 1015.4mb 69f
9:00am  -  mph 1015.2mb 67f
8:00am 3
mph
1015.4mb 67f
7:00am 2 3 mph 1015.1mb 66f
6:00am  -  1 mph 1014.7mb 66f
5:00am 2 3 mph 1014.4mb 67f
4:00am  -  1 mph 1014.7mb 67f
3:00am 3 5 mph 1015.4mb 67f
2:00am 2
mph
1015.3mb 67f
1:00am 3
mph
1015.4mb 67f
12:00am 3 5 mph 1015.5mb 67f
Fri 04/17 11:00pm 3
mph
1016.3mb 68f
10:00pm  -  1 mph 1016.4mb 68f
9:00pm  -  1 mph 1015.9mb 68f
8:00pm  -  mph 1015.8mb 68f
7:00pm  -  1 mph 1015.7mb 69f
6:00pm 6
mph
1015.7mb 68f
5:00pm 3
mph
1015.8mb 69f
4:00pm 3
mph
1016.1mb 69f
3:00pm 3 5 mph 1016.9mb 72f
2:00pm 7 9 mph 1017.5mb 71f
1:00pm 7 9 mph 1018mb 69f
12:00pm 9 13 mph 1018.7mb 68f
11:00am 8 13 mph 1018.9mb 66f
10:00am 8 13 mph 1018.7mb 66f
9:00am 8 13 mph 1018.3mb 65f
8:00am 9 13 mph 1018.2mb 65f
7:00am 10 14 mph 1017.6mb 64f